Terminal Aerodrome Forecast
Issued by NWS Austin/San Antonio, TX

Home | Current Version | Previous Version | Text Only | Print | Product List | Glossary On
Versions: 1 2 3 4 5 6 7 8 9 10 11 12
000
FTUS44 KEWX 251125
TAFAUS
TAF
KAUS 251125Z 2512/2618 19006KT P6SM FEW030 BKN250
     FM251800 01010KT P6SM VCSH OVC050
     FM252000 36012KT P6SM VCTS BKN020CB OVC050
     FM260200 35013KT P6SM OVC050
     FM260800 35004KT P6SM FEW250=

USA.gov is the U.S. government's official web portal to all federal, state and local government web resources and services.